sensor_id;sensor_type;location;lat;lon;timestamp;pressure;altitude;pressure_sealevel;temperature;humidity
51524;BME280;37610;51.790;21.590;2023-01-29T00:03:42;100923.85;;;-0.21;70.80
51524;BME280;37610;51.790;21.590;2023-01-29T00:07:44;100917.18;;;-0.24;70.47
51524;BME280;37610;51.790;21.590;2023-01-29T00:11:45;100904.57;;;-0.24;70.43
51524;BME280;37610;51.790;21.590;2023-01-29T00:15:55;100909.86;;;-0.23;70.09
51524;BME280;37610;51.790;21.590;2023-01-29T00:19:56;100908.55;;;-0.24;70.24
51524;BME280;37610;51.790;21.590;2023-01-29T00:23:58;100902.63;;;-0.24;70.31
51524;BME280;37610;51.790;21.590;2023-01-29T00:28:00;100898.53;;;-0.24;70.61
51524;BME280;37610;51.790;21.590;2023-01-29T00:32:01;100898.02;;;-0.31;69.55
51524;BME280;37610;51.790;21.590;2023-01-29T00:36:04;100886.70;;;-0.41;69.48
51524;BME280;37610;51.790;21.590;2023-01-29T00:40:06;100881.73;;;-0.48;69.51
51524;BME280;37610;51.790;21.590;2023-01-29T00:44:08;100877.54;;;-0.52;69.69
51524;BME280;37610;51.790;21.590;2023-01-29T00:48:28;100861.50;;;-0.55;69.54
51524;BME280;37610;51.790;21.590;2023-01-29T00:52:30;100868.05;;;-0.55;68.79
51524;BME280;37610;51.790;21.590;2023-01-29T00:56:35;100869.27;;;-0.59;69.02
51524;BME280;37610;51.790;21.590;2023-01-29T01:00:37;100873.39;;;-0.63;68.93
51524;BME280;37610;51.790;21.590;2023-01-29T01:04:39;100868.44;;;-0.62;69.03
51524;BME280;37610;51.790;21.590;2023-01-29T01:08:40;100868.55;;;-0.65;68.58
51524;BME280;37610;51.790;21.590;2023-01-29T01:13:05;100863.09;;;-0.69;68.77
51524;BME280;37610;51.790;21.590;2023-01-29T01:17:07;100864.10;;;-0.71;68.60
51524;BME280;37610;51.790;21.590;2023-01-29T01:21:09;100859.23;;;-0.72;68.24
51524;BME280;37610;51.790;21.590;2023-01-29T01:25:11;100868.05;;;-0.77;67.76
51524;BME280;37610;51.790;21.590;2023-01-29T01:29:12;100864.33;;;-0.80;68.13
51524;BME280;37610;51.790;21.590;2023-01-29T01:33:14;100860.65;;;-0.84;67.94
51524;BME280;37610;51.790;21.590;2023-01-29T01:37:16;100858.18;;;-0.87;67.28
51524;BME280;37610;51.790;21.590;2023-01-29T01:41:20;100860.06;;;-0.92;67.58
51524;BME280;37610;51.790;21.590;2023-01-29T01:45:31;100852.76;;;-0.93;67.36
51524;BME280;37610;51.790;21.590;2023-01-29T01:49:33;100847.09;;;-0.94;67.70
51524;BME280;37610;51.790;21.590;2023-01-29T01:53:51;100846.63;;;-0.95;67.82
51524;BME280;37610;51.790;21.590;2023-01-29T01:57:59;100846.00;;;-0.93;68.00
51524;BME280;37610;51.790;21.590;2023-01-29T02:02:05;100846.89;;;-0.93;67.32
51524;BME280;37610;51.790;21.590;2023-01-29T02:06:26;100843.75;;;-0.97;68.06
51524;BME280;37610;51.790;21.590;2023-01-29T02:10:47;100839.08;;;-1.00;68.09
51524;BME280;37610;51.790;21.590;2023-01-29T02:14:50;100838.77;;;-0.96;67.57
51524;BME280;37610;51.790;21.590;2023-01-29T02:18:52;100841.30;;;-0.93;67.95
51524;BME280;37610;51.790;21.590;2023-01-29T02:27:09;100844.09;;;-0.91;67.51
51524;BME280;37610;51.790;21.590;2023-01-29T02:31:32;100850.20;;;-0.92;67.18
51524;BME280;37610;51.790;21.590;2023-01-29T02:35:42;100850.59;;;-0.94;66.88
51524;BME280;37610;51.790;21.590;2023-01-29T02:39:59;100856.17;;;-1.01;66.73
51524;BME280;37610;51.790;21.590;2023-01-29T02:48:30;100849.23;;;-1.17;67.05
51524;BME280;37610;51.790;21.590;2023-01-29T02:57:10;100855.77;;;-1.17;67.22
51524;BME280;37610;51.790;21.590;2023-01-29T03:01:20;100850.55;;;-1.16;67.11
51524;BME280;37610;51.790;21.590;2023-01-29T03:05:34;100841.89;;;-1.14;67.07
51524;BME280;37610;51.790;21.590;2023-01-29T03:09:39;100841.17;;;-1.07;66.79
51524;BME280;37610;51.790;21.590;2023-01-29T03:13:56;100839.60;;;-1.02;66.88
51524;BME280;37610;51.790;21.590;2023-01-29T03:18:23;100844.91;;;-1.01;67.41
51524;BME280;37610;51.790;21.590;2023-01-29T03:22:29;100837.37;;;-1.00;66.99
51524;BME280;37610;51.790;21.590;2023-01-29T03:26:31;100833.69;;;-0.99;67.30
51524;BME280;37610;51.790;21.590;2023-01-29T03:30:56;100829.41;;;-1.06;67.20
51524;BME280;37610;51.790;21.590;2023-01-29T03:35:22;100818.81;;;-1.10;67.08
51524;BME280;37610;51.790;21.590;2023-01-29T03:39:34;100816.26;;;-1.13;67.17
51524;BME280;37610;51.790;21.590;2023-01-29T03:52:15;100807.86;;;-1.16;67.33
51524;BME280;37610;51.790;21.590;2023-01-29T03:56:38;100801.33;;;-1.21;67.34
51524;BME280;37610;51.790;21.590;2023-01-29T04:00:45;100796.46;;;-1.23;67.45
51524;BME280;37610;51.790;21.590;2023-01-29T04:04:51;100799.98;;;-1.21;67.59
51524;BME280;37610;51.790;21.590;2023-01-29T04:09:14;100806.95;;;-1.13;67.53
51524;BME280;37610;51.790;21.590;2023-01-29T04:13:17;100809.79;;;-1.08;67.57
51524;BME280;37610;51.790;21.590;2023-01-29T04:17:30;100802.40;;;-1.06;67.82
51524;BME280;37610;51.790;21.590;2023-01-29T04:21:34;100797.35;;;-1.08;67.44
51524;BME280;37610;51.790;21.590;2023-01-29T04:25:46;100803.23;;;-1.12;67.25
51524;BME280;37610;51.790;21.590;2023-01-29T04:39:01;100799.08;;;-1.25;67.06
51524;BME280;37610;51.790;21.590;2023-01-29T04:43:08;100800.12;;;-1.30;67.38
51524;BME280;37610;51.790;21.590;2023-01-29T04:47:35;100793.38;;;-1.32;67.21
51524;BME280;37610;51.790;21.590;2023-01-29T04:51:54;100800.21;;;-1.33;67.33
51524;BME280;37610;51.790;21.590;2023-01-29T04:56:06;100793.13;;;-1.31;67.58
51524;BME280;37610;51.790;21.590;2023-01-29T05:00:13;100779.86;;;-1.34;67.66
51524;BME280;37610;51.790;21.590;2023-01-29T05:04:18;100772.84;;;-1.34;67.74
51524;BME280;37610;51.790;21.590;2023-01-29T05:08:23;100767.30;;;-1.34;67.52
51524;BME280;37610;51.790;21.590;2023-01-29T05:12:27;100765.21;;;-1.36;67.94
51524;BME280;37610;51.790;21.590;2023-01-29T05:16:46;100765.57;;;-1.41;67.96
51524;BME280;37610;51.790;21.590;2023-01-29T05:20:53;100759.98;;;-1.42;67.92
51524;BME280;37610;51.790;21.590;2023-01-29T05:24:56;100760.13;;;-1.40;68.03
51524;BME280;37610;51.790;21.590;2023-01-29T05:28:58;100769.28;;;-1.40;68.37
51524;BME280;37610;51.790;21.590;2023-01-29T05:33:00;100775.05;;;-1.41;68.44
51524;BME280;37610;51.790;21.590;2023-01-29T05:37:02;100778.65;;;-1.40;68.77
51524;BME280;37610;51.790;21.590;2023-01-29T05:41:03;100777.23;;;-1.42;68.86
51524;BME280;37610;51.790;21.590;2023-01-29T05:45:06;100764.21;;;-1.43;68.95
51524;BME280;37610;51.790;21.590;2023-01-29T05:49:08;100760.52;;;-1.43;69.02
51524;BME280;37610;51.790;21.590;2023-01-29T05:53:09;100757.89;;;-1.40;69.05
51524;BME280;37610;51.790;21.590;2023-01-29T05:57:11;100751.27;;;-1.39;69.07
51524;BME280;37610;51.790;21.590;2023-01-29T06:01:18;100748.02;;;-1.39;69.09
51524;BME280;37610;51.790;21.590;2023-01-29T06:05:19;100753.10;;;-1.41;69.08
51524;BME280;37610;51.790;21.590;2023-01-29T06:09:21;100761.11;;;-1.39;69.45
51524;BME280;37610;51.790;21.590;2023-01-29T06:13:22;100762.36;;;-1.40;69.09
51524;BME280;37610;51.790;21.590;2023-01-29T06:17:24;100763.98;;;-1.38;69.44
51524;BME280;37610;51.790;21.590;2023-01-29T06:21:25;100763.17;;;-1.32;69.36
51524;BME280;37610;51.790;21.590;2023-01-29T06:25:27;100766.77;;;-1.34;69.55
51524;BME280;37610;51.790;21.590;2023-01-29T06:29:28;100763.92;;;-1.33;69.57
51524;BME280;37610;51.790;21.590;2023-01-29T06:33:30;100763.05;;;-1.33;69.47
51524;BME280;37610;51.790;21.590;2023-01-29T06:37:31;100767.95;;;-1.36;69.89
51524;BME280;37610;51.790;21.590;2023-01-29T06:41:34;100778.98;;;-1.33;69.88
51524;BME280;37610;51.790;21.590;2023-01-29T06:45:35;100774.73;;;-1.28;70.04
51524;BME280;37610;51.790;21.590;2023-01-29T06:49:37;100777.89;;;-1.26;70.12
51524;BME280;37610;51.790;21.590;2023-01-29T06:53:39;100773.44;;;-1.24;70.11
51524;BME280;37610;51.790;21.590;2023-01-29T06:57:41;100779.65;;;-1.24;69.93
51524;BME280;37610;51.790;21.590;2023-01-29T07:01:42;100777.27;;;-1.25;70.34
51524;BME280;37610;51.790;21.590;2023-01-29T07:05:50;100780.55;;;-1.23;70.01
51524;BME280;37610;51.790;21.590;2023-01-29T07:09:52;100782.02;;;-1.15;70.21
51524;BME280;37610;51.790;21.590;2023-01-29T07:13:53;100783.29;;;-1.11;70.02
51524;BME280;37610;51.790;21.590;2023-01-29T07:17:56;100782.39;;;-1.08;69.83
51524;BME280;37610;51.790;21.590;2023-01-29T07:21:58;100787.17;;;-1.01;70.20
51524;BME280;37610;51.790;21.590;2023-01-29T07:26:04;100792.83;;;-0.96;69.88
51524;BME280;37610;51.790;21.590;2023-01-29T07:30:07;100787.78;;;-0.93;70.03
51524;BME280;37610;51.790;21.590;2023-01-29T07:34:08;100790.42;;;-0.85;70.12
51524;BME280;37610;51.790;21.590;2023-01-29T07:38:10;100778.84;;;-0.87;69.72
51524;BME280;37610;51.790;21.590;2023-01-29T07:42:12;100765.10;;;-0.88;69.88
51524;BME280;37610;51.790;21.590;2023-01-29T07:46:13;100762.45;;;-0.83;69.47
51524;BME280;37610;51.790;21.590;2023-01-29T07:50:15;100764.39;;;-0.88;69.61
51524;BME280;37610;51.790;21.590;2023-01-29T07:54:16;100768.38;;;-0.84;69.61
51524;BME280;37610;51.790;21.590;2023-01-29T07:58:18;100762.51;;;-0.76;69.34
51524;BME280;37610;51.790;21.590;2023-01-29T08:02:20;100758.06;;;-0.70;69.35
51524;BME280;37610;51.790;21.590;2023-01-29T08:06:21;100758.27;;;-0.66;68.89
51524;BME280;37610;51.790;21.590;2023-01-29T08:10:23;100751.11;;;-0.63;69.07
51524;BME280;37610;51.790;21.590;2023-01-29T08:14:24;100754.77;;;-0.57;68.97
51524;BME280;37610;51.790;21.590;2023-01-29T08:18:26;100759.39;;;-0.45;69.40
51524;BME280;37610;51.790;21.590;2023-01-29T08:22:28;100760.52;;;-0.40;69.04
51524;BME280;37610;51.790;21.590;2023-01-29T08:26:30;100762.60;;;-0.40;68.72
51524;BME280;37610;51.790;21.590;2023-01-29T08:30:33;100751.30;;;-0.43;68.83
51524;BME280;37610;51.790;21.590;2023-01-29T08:34:35;100752.00;;;-0.41;68.57
51524;BME280;37610;51.790;21.590;2023-01-29T08:38:36;100762.33;;;-0.35;68.38
51524;BME280;37610;51.790;21.590;2023-01-29T08:42:38;100751.86;;;-0.36;68.41
51524;BME280;37610;51.790;21.590;2023-01-29T08:46:41;100748.10;;;-0.34;68.59
51524;BME280;37610;51.790;21.590;2023-01-29T08:50:43;100745.95;;;-0.33;68.17
51524;BME280;37610;51.790;21.590;2023-01-29T08:54:44;100740.02;;;-0.32;68.11
51524;BME280;37610;51.790;21.590;2023-01-29T08:58:46;100728.60;;;-0.28;68.10
51524;BME280;37610;51.790;21.590;2023-01-29T09:02:48;100723.90;;;-0.17;68.15
51524;BME280;37610;51.790;21.590;2023-01-29T09:06:49;100731.77;;;-0.10;67.91
51524;BME280;37610;51.790;21.590;2023-01-29T09:10:51;100728.48;;;-0.04;67.77
51524;BME280;37610;51.790;21.590;2023-01-29T09:14:52;100735.52;;;0.01;67.35
51524;BME280;37610;51.790;21.590;2023-01-29T09:18:53;100726.60;;;-0.06;67.31
51524;BME280;37610;51.790;21.590;2023-01-29T09:22:55;100724.35;;;-0.07;67.17
51524;BME280;37610;51.790;21.590;2023-01-29T09:26:59;100703.01;;;-0.08;66.86
51524;BME280;37610;51.790;21.590;2023-01-29T09:31:01;100706.83;;;-0.12;66.98
51524;BME280;37610;51.790;21.590;2023-01-29T09:35:04;100710.95;;;-0.14;67.09
51524;BME280;37610;51.790;21.590;2023-01-29T09:39:05;100703.62;;;-0.13;67.28
51524;BME280;37610;51.790;21.590;2023-01-29T09:47:19;100676.84;;;0.07;67.36
51524;BME280;37610;51.790;21.590;2023-01-29T09:51:30;100672.29;;;0.10;66.79
51524;BME280;37610;51.790;21.590;2023-01-29T09:56:09;100666.89;;;0.10;66.62
51524;BME280;37610;51.790;21.590;2023-01-29T10:00:31;100665.95;;;0.17;66.83
51524;BME280;37610;51.790;21.590;2023-01-29T10:21:51;100652.28;;;0.47;65.47
51524;BME280;37610;51.790;21.590;2023-01-29T10:26:00;100641.98;;;0.42;65.88
51524;BME280;37610;51.790;21.590;2023-01-29T10:30:06;100631.85;;;0.47;65.87
51524;BME280;37610;51.790;21.590;2023-01-29T10:38:51;100613.86;;;0.73;65.62
51524;BME280;37610;51.790;21.590;2023-01-29T10:43:18;100607.38;;;0.85;65.63
51524;BME280;37610;51.790;21.590;2023-01-29T10:48:05;100617.56;;;0.89;65.45
51524;BME280;37610;51.790;21.590;2023-01-29T10:51:54;100601.45;;;0.95;65.28
51524;BME280;37610;51.790;21.590;2023-01-29T10:56:41;100599.59;;;0.95;64.84
51524;BME280;37610;51.790;21.590;2023-01-29T11:00:45;100587.39;;;0.90;65.02
51524;BME280;37610;51.790;21.590;2023-01-29T11:04:47;100580.99;;;0.91;65.20
51524;BME280;37610;51.790;21.590;2023-01-29T11:08:53;100574.49;;;1.00;65.26
51524;BME280;37610;51.790;21.590;2023-01-29T11:12:57;100574.67;;;0.98;65.25
51524;BME280;37610;51.790;21.590;2023-01-29T11:16:59;100574.23;;;0.97;65.33
51524;BME280;37610;51.790;21.590;2023-01-29T11:21:03;100573.42;;;1.00;65.26
51524;BME280;37610;51.790;21.590;2023-01-29T11:25:17;100562.20;;;0.96;65.35
51524;BME280;37610;51.790;21.590;2023-01-29T11:33:27;100550.31;;;0.82;65.73
51524;BME280;37610;51.790;21.590;2023-01-29T11:37:42;100546.04;;;0.73;65.79
51524;BME280;37610;51.790;21.590;2023-01-29T11:45:53;100540.13;;;0.74;66.25
51524;BME280;37610;51.790;21.590;2023-01-29T11:49:59;100539.41;;;0.78;66.46
51524;BME280;37610;51.790;21.590;2023-01-29T11:54:03;100530.23;;;0.72;66.51
51524;BME280;37610;51.790;21.590;2023-01-29T11:58:12;100519.45;;;0.78;66.79
51524;BME280;37610;51.790;21.590;2023-01-29T12:02:30;100522.68;;;0.77;66.73
51524;BME280;37610;51.790;21.590;2023-01-29T12:06:36;100506.70;;;0.64;66.84
51524;BME280;37610;51.790;21.590;2023-01-29T12:10:42;100494.32;;;0.55;67.17
51524;BME280;37610;51.790;21.590;2023-01-29T12:14:44;100493.15;;;0.50;67.33
51524;BME280;37610;51.790;21.590;2023-01-29T12:19:04;100489.86;;;0.50;67.60
51524;BME280;37610;51.790;21.590;2023-01-29T12:31:48;100480.59;;;0.52;69.66
51524;BME280;37610;51.790;21.590;2023-01-29T12:36:23;100469.52;;;0.56;69.18
51524;BME280;37610;51.790;21.590;2023-01-29T12:40:50;100454.17;;;0.55;69.07
51524;BME280;37610;51.790;21.590;2023-01-29T12:44:58;100440.59;;;0.59;69.19
51524;BME280;37610;51.790;21.590;2023-01-29T12:49:05;100436.83;;;0.66;69.01
51524;BME280;37610;51.790;21.590;2023-01-29T12:53:24;100432.04;;;0.68;69.26
51524;BME280;37610;51.790;21.590;2023-01-29T12:57:41;100430.20;;;0.65;69.38
51524;BME280;37610;51.790;21.590;2023-01-29T13:01:52;100432.48;;;0.70;69.27
51524;BME280;37610;51.790;21.590;2023-01-29T13:05:59;100434.39;;;0.72;69.31
51524;BME280;37610;51.790;21.590;2023-01-29T13:10:09;100430.55;;;0.72;69.52
51524;BME280;37610;51.790;21.590;2023-01-29T13:19:01;100427.91;;;0.61;70.18
51524;BME280;37610;51.790;21.590;2023-01-29T13:23:25;100408.13;;;0.58;70.16
51524;BME280;37610;51.790;21.590;2023-01-29T13:27:30;100408.73;;;0.63;70.28
51524;BME280;37610;51.790;21.590;2023-01-29T13:31:37;100410.45;;;0.65;70.38
51524;BME280;37610;51.790;21.590;2023-01-29T13:35:43;100414.95;;;0.60;70.33
51524;BME280;37610;51.790;21.590;2023-01-29T13:39:49;100413.44;;;0.51;70.69
51524;BME280;37610;51.790;21.590;2023-01-29T13:43:52;100413.14;;;0.46;70.99
51524;BME280;37610;51.790;21.590;2023-01-29T13:52:51;100423.52;;;0.41;71.58
51524;BME280;37610;51.790;21.590;2023-01-29T14:00:54;100427.69;;;0.43;72.04
51524;BME280;37610;51.790;21.590;2023-01-29T14:09:30;100425.50;;;0.30;72.42
51524;BME280;37610;51.790;21.590;2023-01-29T14:13:33;100423.59;;;0.30;72.60
51524;BME280;37610;51.790;21.590;2023-01-29T14:17:36;100410.25;;;0.29;73.09
51524;BME280;37610;51.790;21.590;2023-01-29T14:21:39;100400.72;;;0.27;73.08
51524;BME280;37610;51.790;21.590;2023-01-29T14:25:40;100405.76;;;0.27;73.53
51524;BME280;37610;51.790;21.590;2023-01-29T14:29:42;100398.45;;;0.27;73.54
51524;BME280;37610;51.790;21.590;2023-01-29T14:33:44;100402.12;;;0.28;73.95
51524;BME280;37610;51.790;21.590;2023-01-29T14:37:48;100405.02;;;0.23;74.06
51524;BME280;37610;51.790;21.590;2023-01-29T14:41:51;100414.34;;;0.18;75.74
51524;BME280;37610;51.790;21.590;2023-01-29T14:45:53;100419.69;;;0.12;76.41
51524;BME280;37610;51.790;21.590;2023-01-29T14:49:58;100434.43;;;0.10;76.24
51524;BME280;37610;51.790;21.590;2023-01-29T14:58:05;100441.43;;;0.05;76.36
51524;BME280;37610;51.790;21.590;2023-01-29T15:02:21;100427.50;;;0.06;76.68
51524;BME280;37610;51.790;21.590;2023-01-29T15:06:40;100425.58;;;0.04;76.78
51524;BME280;37610;51.790;21.590;2023-01-29T15:10:48;100418.77;;;0.03;76.85
51524;BME280;37610;51.790;21.590;2023-01-29T15:15:36;100399.21;;;0.05;77.69
51524;BME280;37610;51.790;21.590;2023-01-29T15:19:42;100387.31;;;-0.02;78.80
51524;BME280;37610;51.790;21.590;2023-01-29T15:24:03;100389.48;;;-0.09;79.41
51524;BME280;37610;51.790;21.590;2023-01-29T15:28:09;100395.00;;;-0.12;79.36
51524;BME280;37610;51.790;21.590;2023-01-29T15:32:15;100401.50;;;-0.15;80.05
51524;BME280;37610;51.790;21.590;2023-01-29T15:36:29;100397.27;;;-0.18;80.50
51524;BME280;37610;51.790;21.590;2023-01-29T15:40:32;100385.75;;;-0.25;81.23
51524;BME280;37610;51.790;21.590;2023-01-29T15:44:34;100381.83;;;-0.27;80.79
51524;BME280;37610;51.790;21.590;2023-01-29T15:48:41;100386.98;;;-0.25;80.86
51524;BME280;37610;51.790;21.590;2023-01-29T15:52:47;100392.47;;;-0.24;81.31
51524;BME280;37610;51.790;21.590;2023-01-29T15:56:51;100383.09;;;-0.26;81.93
51524;BME280;37610;51.790;21.590;2023-01-29T16:00:54;100383.29;;;-0.27;82.24
51524;BME280;37610;51.790;21.590;2023-01-29T16:04:57;100383.91;;;-0.27;82.26
51524;BME280;37610;51.790;21.590;2023-01-29T16:08:59;100378.23;;;-0.30;82.04
51524;BME280;37610;51.790;21.590;2023-01-29T16:13:01;100375.45;;;-0.29;82.74
51524;BME280;37610;51.790;21.590;2023-01-29T16:17:29;100382.52;;;-0.27;82.39
51524;BME280;37610;51.790;21.590;2023-01-29T16:21:37;100375.83;;;-0.24;82.32
51524;BME280;37610;51.790;21.590;2023-01-29T16:25:40;100378.93;;;-0.22;82.05
51524;BME280;37610;51.790;21.590;2023-01-29T16:29:42;100368.52;;;-0.20;82.18
51524;BME280;37610;51.790;21.590;2023-01-29T16:33:44;100367.52;;;-0.18;82.06
51524;BME280;37610;51.790;21.590;2023-01-29T16:37:47;100372.41;;;-0.13;82.00
51524;BME280;37610;51.790;21.590;2023-01-29T16:50:35;100362.43;;;-0.10;82.32
51524;BME280;37610;51.790;21.590;2023-01-29T16:54:41;100360.35;;;-0.10;82.82
51524;BME280;37610;51.790;21.590;2023-01-29T16:58:48;100355.02;;;-0.14;83.06
51524;BME280;37610;51.790;21.590;2023-01-29T17:02:53;100358.70;;;-0.20;83.97
51524;BME280;37610;51.790;21.590;2023-01-29T17:06:58;100358.63;;;-0.21;84.48
51524;BME280;37610;51.790;21.590;2023-01-29T17:11:01;100365.61;;;-0.24;84.54
51524;BME280;37610;51.790;21.590;2023-01-29T17:15:28;100365.34;;;-0.29;85.98
51524;BME280;37610;51.790;21.590;2023-01-29T17:19:30;100366.69;;;-0.30;86.73
51524;BME280;37610;51.790;21.590;2023-01-29T17:23:32;100372.43;;;-0.30;86.61
51524;BME280;37610;51.790;21.590;2023-01-29T17:27:34;100373.92;;;-0.34;86.65
51524;BME280;37610;51.790;21.590;2023-01-29T17:31:35;100367.80;;;-0.33;87.00
51524;BME280;37610;51.790;21.590;2023-01-29T17:35:37;100366.50;;;-0.32;87.69
51524;BME280;37610;51.790;21.590;2023-01-29T17:39:38;100354.34;;;-0.37;87.24
51524;BME280;37610;51.790;21.590;2023-01-29T17:43:40;100345.98;;;-0.35;87.09
51524;BME280;37610;51.790;21.590;2023-01-29T17:47:41;100332.10;;;-0.34;87.49
51524;BME280;37610;51.790;21.590;2023-01-29T17:51:43;100330.34;;;-0.34;87.59
51524;BME280;37610;51.790;21.590;2023-01-29T17:55:44;100324.66;;;-0.28;87.11
51524;BME280;37610;51.790;21.590;2023-01-29T17:59:46;100317.69;;;-0.30;87.01
51524;BME280;37610;51.790;21.590;2023-01-29T18:03:48;100312.80;;;-0.29;86.62
51524;BME280;37610;51.790;21.590;2023-01-29T18:07:49;100306.80;;;-0.30;86.68
51524;BME280;37610;51.790;21.590;2023-01-29T18:11:52;100284.59;;;-0.27;86.54
51524;BME280;37610;51.790;21.590;2023-01-29T18:15:54;100279.93;;;-0.31;86.78
51524;BME280;37610;51.790;21.590;2023-01-29T18:19:55;100285.02;;;-0.30;86.93
51524;BME280;37610;51.790;21.590;2023-01-29T18:23:58;100272.05;;;-0.28;86.79
51524;BME280;37610;51.790;21.590;2023-01-29T18:28:00;100261.10;;;-0.31;87.04
51524;BME280;37610;51.790;21.590;2023-01-29T18:32:01;100264.73;;;-0.27;86.89
51524;BME280;37610;51.790;21.590;2023-01-29T18:36:04;100257.52;;;-0.28;87.00
51524;BME280;37610;51.790;21.590;2023-01-29T18:40:08;100257.20;;;-0.23;86.75
51524;BME280;37610;51.790;21.590;2023-01-29T18:44:10;100251.70;;;-0.21;86.40
51524;BME280;37610;51.790;21.590;2023-01-29T18:48:12;100230.64;;;-0.24;86.78
51524;BME280;37610;51.790;21.590;2023-01-29T18:52:15;100229.01;;;-0.23;86.89
51524;BME280;37610;51.790;21.590;2023-01-29T18:56:17;100222.92;;;-0.24;86.64
51524;BME280;37610;51.790;21.590;2023-01-29T19:00:20;100223.41;;;-0.24;86.54
51524;BME280;37610;51.790;21.590;2023-01-29T19:04:21;100216.69;;;-0.24;86.31
51524;BME280;37610;51.790;21.590;2023-01-29T19:08:23;100223.61;;;-0.28;86.14
51524;BME280;37610;51.790;21.590;2023-01-29T19:12:24;100212.70;;;-0.28;86.13
51524;BME280;37610;51.790;21.590;2023-01-29T19:16:26;100219.11;;;-0.24;85.88
51524;BME280;37610;51.790;21.590;2023-01-29T19:20:27;100220.90;;;-0.25;85.90
51524;BME280;37610;51.790;21.590;2023-01-29T19:24:29;100219.80;;;-0.22;85.56
51524;BME280;37610;51.790;21.590;2023-01-29T19:28:36;100210.71;;;-0.23;85.60
51524;BME280;37610;51.790;21.590;2023-01-29T19:32:39;100208.00;;;-0.22;85.42
51524;BME280;37610;51.790;21.590;2023-01-29T19:36:41;100211.07;;;-0.21;85.33
51524;BME280;37610;51.790;21.590;2023-01-29T19:40:43;100207.37;;;-0.23;85.25
51524;BME280;37610;51.790;21.590;2023-01-29T19:44:45;100200.95;;;-0.22;85.13
51524;BME280;37610;51.790;21.590;2023-01-29T19:48:47;100197.45;;;-0.20;84.98
51524;BME280;37610;51.790;21.590;2023-01-29T19:52:48;100190.45;;;-0.19;85.13
51524;BME280;37610;51.790;21.590;2023-01-29T19:56:53;100183.86;;;-0.19;85.14
51524;BME280;37610;51.790;21.590;2023-01-29T20:00:56;100178.20;;;-0.17;85.54
51524;BME280;37610;51.790;21.590;2023-01-29T20:04:58;100177.51;;;-0.18;85.59
51524;BME280;37610;51.790;21.590;2023-01-29T20:09:01;100177.55;;;-0.18;85.27
51524;BME280;37610;51.790;21.590;2023-01-29T20:13:03;100177.06;;;-0.20;85.45
51524;BME280;37610;51.790;21.590;2023-01-29T20:17:06;100176.17;;;-0.22;85.83
51524;BME280;37610;51.790;21.590;2023-01-29T20:21:14;100168.31;;;-0.25;85.91
51524;BME280;37610;51.790;21.590;2023-01-29T20:25:15;100171.23;;;-0.27;86.44
51524;BME280;37610;51.790;21.590;2023-01-29T20:29:17;100166.32;;;-0.26;86.68
51524;BME280;37610;51.790;21.590;2023-01-29T20:33:19;100161.40;;;-0.29;86.89
51524;BME280;37610;51.790;21.590;2023-01-29T20:37:21;100151.63;;;-0.30;86.97
51524;BME280;37610;51.790;21.590;2023-01-29T20:41:22;100151.04;;;-0.32;89.98
51524;BME280;37610;51.790;21.590;2023-01-29T20:45:24;100148.61;;;-0.40;90.56
51524;BME280;37610;51.790;21.590;2023-01-29T20:49:26;100148.15;;;-0.43;90.82
51524;BME280;37610;51.790;21.590;2023-01-29T20:53:28;100135.02;;;-0.41;90.85
51524;BME280;37610;51.790;21.590;2023-01-29T20:57:30;100127.88;;;-0.39;90.94
51524;BME280;37610;51.790;21.590;2023-01-29T21:01:31;100121.14;;;-0.37;90.43
51524;BME280;37610;51.790;21.590;2023-01-29T21:05:33;100113.95;;;-0.36;90.61
51524;BME280;37610;51.790;21.590;2023-01-29T21:09:34;100106.39;;;-0.34;89.59
51524;BME280;37610;51.790;21.590;2023-01-29T21:13:36;100102.73;;;-0.34;89.37
51524;BME280;37610;51.790;21.590;2023-01-29T21:17:37;100104.05;;;-0.35;88.32
51524;BME280;37610;51.790;21.590;2023-01-29T21:21:39;100105.05;;;-0.35;87.84
51524;BME280;37610;51.790;21.590;2023-01-29T21:25:40;100098.55;;;-0.37;88.40
51524;BME280;37610;51.790;21.590;2023-01-29T21:29:44;100091.73;;;-0.38;89.66
51524;BME280;37610;51.790;21.590;2023-01-29T21:33:46;100088.09;;;-0.40;89.73
51524;BME280;37610;51.790;21.590;2023-01-29T21:37:47;100083.45;;;-0.39;90.01
51524;BME280;37610;51.790;21.590;2023-01-29T21:41:50;100078.70;;;-0.34;88.77
51524;BME280;37610;51.790;21.590;2023-01-29T21:46:10;100075.38;;;-0.32;88.64
51524;BME280;37610;51.790;21.590;2023-01-29T21:50:12;100078.27;;;-0.31;88.38
51524;BME280;37610;51.790;21.590;2023-01-29T21:54:13;100072.40;;;-0.32;88.44
51524;BME280;37610;51.790;21.590;2023-01-29T21:58:15;100062.52;;;-0.29;88.38
51524;BME280;37610;51.790;21.590;2023-01-29T22:02:16;100062.77;;;-0.27;88.10
51524;BME280;37610;51.790;21.590;2023-01-29T22:06:18;100059.73;;;-0.29;88.59
51524;BME280;37610;51.790;21.590;2023-01-29T22:10:20;100052.23;;;-0.28;88.41
51524;BME280;37610;51.790;21.590;2023-01-29T22:14:22;100049.84;;;-0.29;88.39
51524;BME280;37610;51.790;21.590;2023-01-29T22:18:24;100049.32;;;-0.27;88.54
51524;BME280;37610;51.790;21.590;2023-01-29T22:22:26;100038.45;;;-0.27;88.51
51524;BME280;37610;51.790;21.590;2023-01-29T22:26:27;100024.86;;;-0.30;88.37
51524;BME280;37610;51.790;21.590;2023-01-29T22:30:30;100018.60;;;-0.30;88.80
51524;BME280;37610;51.790;21.590;2023-01-29T22:34:32;100013.11;;;-0.28;88.54
51524;BME280;37610;51.790;21.590;2023-01-29T22:38:34;100005.23;;;-0.27;88.47
51524;BME280;37610;51.790;21.590;2023-01-29T22:42:36;100002.08;;;-0.27;89.00
51524;BME280;37610;51.790;21.590;2023-01-29T22:46:37;100000.87;;;-0.29;89.01
51524;BME280;37610;51.790;21.590;2023-01-29T22:50:39;99986.68;;;-0.30;89.22
51524;BME280;37610;51.790;21.590;2023-01-29T22:54:42;99977.52;;;-0.31;89.79
51524;BME280;37610;51.790;21.590;2023-01-29T22:58:43;99961.17;;;-0.33;89.72